Airfield :
LOGIN :

Register | Disclaimer

   EN    FR    IT 

 










Legend :    VFR   Marginal VFR   IFR   Intensive IFR   Very Intensive IFR
Visi :
Ceiling :
>= 8 km
>= 3000ft
5 to 8 km
1000 to 3000 ft
1500m to 5 km
500 to 1000 ft
800 to 1500m
200 to 500 ft
< 800m
< 200 ft
Symbols :   Thunderstorms  Fog  Heavy snow  Heavy precipitations  Wind > 20 kt
SIGMETs :     Misc.  Thunderstorms  Icing  Turbulence  Mountain Waves  Volcanic Ashes







- Airport Elevation : 39 ft
- IATA code : ANR


EBAW - Anvers / Antwerpen Deurne

CURRENT METAR :
  • 250620Z VRB01KT 2500 BR FEW002 16/15 Q1017 BECMG 8000 NSW

EXPIRED METARs :
  • 250550Z VRB02KT 0300 R11/0275N R29/0300N FG VV001 15/14 Q1017 BECMG 1500 BR SCT003
  • 250520Z VRB02KT 0200 R11/0250N R29/0225N FG VV001 14/14 Q1017 BECMG FM0530 1500 BR SCT003
  • 250450Z VRB02KT 0200 R11/0275N R29/0275N FG VV001 14/13 Q1017 BECMG FM0530 VIS 1500M BR SCT003
  • 250420Z 12003KT 0200 R11/0250N R29/0250N FG VV001 14/13 Q1017 BECMG FM0530 VIS 1500M BR
  • 250350Z AUTO VRB02KT 0100 R11/0275N R29/0250N FG VV001 14/14 Q1017

Expired Forecast.
No reported NOTAMs for that airfield.



MET'MAP, your aeronautical weather chart ! - Copyright ORBIFLY December 2007 - Disclaimer

ORBIFLY MET'MAP TEAM :

Programming & Development : Alexandra Zaïnal
Concept & Development : Baudouin d'Aumeries
Co-Development & Prog : Marc-Olivier Méhu
Technical & hardware support : Manuel Goepfert

Contact : metmap@orbifly.com




SOURCES & CREDITS :

   NOAA